Haleyville, Alabama
Current Conditions -  °F | °C
As of 2:16 AM on Sunday 26 Oct 2014 (Local Time) from K1M4 Reporting Station
Moderate Fog Moderate Fog  
Wind Chill: 13°   Ceiling: Unl
Heat Index: 13°   Visibility: 0.5mi
Dew Point: 13°   Wind: 0mph
Humidity: 100%   Direction: NA
Pressure: 30.06"   Gusts: NA
Location:  34.23°N, 87.62°W
Report Text: K1M4 260716Z AUTO 00000KT 1/2SM FG CLR 13/13 A3006 RMK AO2
Loading
Personal Weather Stations






























Interactive Weather Map
Tropical Storm Tracking
New forecast layout! Learn more

10-Day Weather Forecast

Advertisements
Track Severe Weather on mobile